Time;durP1;ratioP1;P1;durP2;ratioP2;P2;SDS_P1;SDS_P2;PMS_P1;PMS_P2;Temp;Humidity;BMP_temperature;BMP_pressure;BME280_temperature;BME280_humidity;BME280_pressure;Samples;Min_cycle;Max_cycle;Signal;HPM_P1;HPM_P2
2022/11/15 00:02:26;;;;;;;18.00;14.57;;;;;;;;;;5074396;28;20245;-46
2022/11/15 00:04:52;;;;;;;19.87;15.97;;;;;;;;;;5074660;28;20231;-45
2022/11/15 00:07:18;;;;;;;18.53;15.50;;;;;;;;;;5074801;28;20195;-45
2022/11/15 00:09:44;;;;;;;18.60;14.83;;;;;;;;;;5074720;28;20280;-45
2022/11/15 00:12:10;;;;;;;16.10;14.40;;;;;;;;;;5074572;28;20200;-45
2022/11/15 00:14:38;;;;;;;17.67;14.93;;;;;;;;;;5074253;28;20200;-45
2022/11/15 00:17:04;;;;;;;17.27;14.20;;;;;;;;;;5074134;28;20231;-45
2022/11/15 00:19:30;;;;;;;16.10;13.30;;;;;;;;;;5074498;28;20204;-45
2022/11/15 00:21:57;;;;;;;17.00;13.70;;;;;;;;;;5074389;28;20199;-45
2022/11/15 00:24:23;;;;;;;18.97;14.50;;;;;;;;;;5074453;28;20206;-45
2022/11/15 00:26:49;;;;;;;16.33;13.77;;;;;;;;;;5073992;28;20284;-45
2022/11/15 00:29:15;;;;;;;16.17;13.60;;;;;;;;;;5074274;28;20734;-45
2022/11/15 00:31:42;;;;;;;16.37;13.63;;;;;;;;;;5074158;28;20686;-45
2022/11/15 00:34:09;;;;;;;16.20;13.60;;;;;;;;;;5074165;28;20278;-45
2022/11/15 00:36:35;;;;;;;16.00;13.40;;;;;;;;;;5074123;28;20242;-45
2022/11/15 00:39:01;;;;;;;15.77;12.63;;;;;;;;;;5073850;28;20257;-45
2022/11/15 00:41:27;;;;;;;14.50;12.90;;;;;;;;;;5074210;28;20196;-46
2022/11/15 00:43:53;;;;;;;16.67;12.93;;;;;;;;;;5073909;28;20681;-45
2022/11/15 00:46:19;;;;;;;14.77;12.97;;;;;;;;;;5074104;28;20218;-45
2022/11/15 00:48:47;;;;;;;15.03;13.07;;;;;;;;;;5073737;28;20231;-45
2022/11/15 00:51:13;;;;;;;13.43;12.03;;;;;;;;;;5070400;28;20584;-45
2022/11/15 00:53:39;;;;;;;13.20;11.90;;;;;;;;;;5074073;28;20880;-45
2022/11/15 00:56:05;;;;;;;13.10;11.70;;;;;;;;;;5073811;28;20397;-45
2022/11/15 00:58:31;;;;;;;12.67;11.37;;;;;;;;;;5073839;28;20666;-45
2022/11/15 01:00:57;;;;;;;15.40;11.70;;;;;;;;;;5073732;28;20199;-45
2022/11/15 01:03:23;;;;;;;13.83;11.57;;;;;;;;;;5073866;28;20720;-45
2022/11/15 01:05:50;;;;;;;11.60;10.40;;;;;;;;;;5073485;28;20959;-45
2022/11/15 01:08:17;;;;;;;11.20;9.70;;;;;;;;;;5072331;28;20848;-45
2022/11/15 01:10:43;;;;;;;11.37;9.17;;;;;;;;;;5073512;28;20200;-45
2022/11/15 01:13:09;;;;;;;10.70;9.47;;;;;;;;;;5073401;28;20215;-45
2022/11/15 01:15:39;;;;;;;10.90;9.60;;;;;;;;;;5073530;28;20238;-45
2022/11/15 01:18:05;;;;;;;12.67;9.60;;;;;;;;;;5073480;28;20196;-45
2022/11/15 01:20:31;;;;;;;10.53;9.00;;;;;;;;;;5072953;28;20668;-45
2022/11/15 01:22:58;;;;;;;11.03;9.27;;;;;;;;;;5073388;28;20203;-45
2022/11/15 01:25:24;;;;;;;10.53;9.27;;;;;;;;;;5073225;28;20658;-45
2022/11/15 01:27:50;;;;;;;9.83;8.80;;;;;;;;;;5073185;28;20253;-45
2022/11/15 01:30:16;;;;;;;10.77;9.10;;;;;;;;;;5071114;28;20199;-45
2022/11/15 01:32:42;;;;;;;10.47;9.07;;;;;;;;;;5073051;28;20670;-45
2022/11/15 01:35:08;;;;;;;10.60;9.00;;;;;;;;;;5072884;28;20235;-45
2022/11/15 01:37:34;;;;;;;10.37;8.33;;;;;;;;;;5073141;28;20195;-45
2022/11/15 01:40:03;;;;;;;11.27;8.30;;;;;;;;;;5072803;28;20215;-45
2022/11/15 01:42:29;;;;;;;9.47;8.20;;;;;;;;;;5072962;28;20207;-45
2022/11/15 01:44:55;;;;;;;9.13;8.10;;;;;;;;;;5072749;28;20195;-45
2022/11/15 01:47:24;;;;;;;9.00;7.73;;;;;;;;;;5073020;28;20210;-46
2022/11/15 01:49:53;;;;;;;8.63;7.73;;;;;;;;;;5072534;28;20277;-45
2022/11/15 01:52:20;;;;;;;8.27;7.30;;;;;;;;;;5072801;28;20195;-45
2022/11/15 01:54:47;;;;;;;9.30;7.63;;;;;;;;;;5072781;28;20206;-45
2022/11/15 01:57:15;;;;;;;8.80;7.90;;;;;;;;;;5072425;28;20273;-45
2022/11/15 01:59:42;;;;;;;8.67;6.93;;;;;;;;;;5072606;28;20203;-45
2022/11/15 02:02:08;;;;;;;8.73;7.13;;;;;;;;;;5072411;28;20196;-45
2022/11/15 02:04:36;;;;;;;9.60;7.83;;;;;;;;;;5072628;28;20287;-45
2022/11/15 02:07:03;;;;;;;7.73;6.87;;;;;;;;;;5072431;28;20195;-45
2022/11/15 02:09:29;;;;;;;9.07;6.67;;;;;;;;;;5072488;28;20290;-45
2022/11/15 02:11:56;;;;;;;11.30;7.33;;;;;;;;;;5072296;28;20199;-45
2022/11/15 02:14:24;;;;;;;7.10;6.40;;;;;;;;;;5072465;28;20203;-45
2022/11/15 02:16:54;;;;;;;7.40;6.63;;;;;;;;;;5072052;28;20280;-45
2022/11/15 02:19:29;;;;;;;8.07;7.17;;;;;;;;;;5072104;28;20676;-45
2022/11/15 02:22:01;;;;;;;7.30;6.60;;;;;;;;;;5071913;28;20194;-45
2022/11/15 02:24:36;;;;;;;8.70;7.43;;;;;;;;;;5072224;28;20203;-45
2022/11/15 02:27:23;;;;;;;8.20;7.13;;;;;;;;;;5072119;28;20248;-45
2022/11/15 02:30:00;;;;;;;8.83;7.00;;;;;;;;;;5072009;28;20679;-45
2022/11/15 02:32:32;;;;;;;8.23;7.37;;;;;;;;;;5072013;28;20206;-45
2022/11/15 02:35:02;;;;;;;8.20;7.40;;;;;;;;;;5071951;28;20239;-45
2022/11/15 02:37:32;;;;;;;8.57;7.60;;;;;;;;;;5071962;28;20403;-45
2022/11/15 02:40:03;;;;;;;8.60;7.67;;;;;;;;;;5071789;28;20199;-46
2022/11/15 02:45:19;;;;;;;9.23;7.97;;;;;;;;;;5071855;28;20206;-45
2022/11/15 02:47:48;;;;;;;12.17;8.17;;;;;;;;;;5071631;28;20199;-46
2022/11/15 02:50:17;;;;;;;11.00;8.30;;;;;;;;;;5071700;28;20234;-45
2022/11/15 02:52:46;;;;;;;10.30;8.03;;;;;;;;;;5071738;28;20196;-45
2022/11/15 02:55:27;;;;;;;11.77;9.00;;;;;;;;;;5071504;28;20221;-45
2022/11/15 02:57:55;;;;;;;10.27;8.30;;;;;;;;;;5069289;28;20566;-45
2022/11/15 03:00:21;;;;;;;9.17;8.13;;;;;;;;;;5071756;28;20195;-45
2022/11/15 03:03:02;;;;;;;9.80;8.37;;;;;;;;;;5071766;28;20199;-45
2022/11/15 03:05:34;;;;;;;9.13;8.20;;;;;;;;;;5071625;28;20638;-45
2022/11/15 03:08:01;;;;;;;10.50;7.93;;;;;;;;;;5071450;28;20716;-45
2022/11/15 03:10:33;;;;;;;12.23;8.20;;;;;;;;;;5071365;28;20199;-45
2022/11/15 03:13:01;;;;;;;9.77;8.20;;;;;;;;;;5071574;28;20219;-45
2022/11/15 03:15:30;;;;;;;10.00;7.70;;;;;;;;;;5071304;28;20227;-44
2022/11/15 03:17:59;;;;;;;8.63;7.57;;;;;;;;;;5071399;28;20206;-45
2022/11/15 03:20:27;;;;;;;11.73;8.03;;;;;;;;;;5071529;28;20199;-45
2022/11/15 03:22:55;;;;;;;10.13;9.13;;;;;;;;;;5071112;28;20241;-45
2022/11/15 03:25:24;;;;;;;13.80;8.43;;;;;;;;;;5071387;28;20609;-45
2022/11/15 03:27:52;;;;;;;8.87;7.93;;;;;;;;;;5071381;28;20195;-45
2022/11/15 03:30:18;;;;;;;9.17;8.17;;;;;;;;;;5071249;28;20200;-45
2022/11/15 03:32:46;;;;;;;8.73;7.83;;;;;;;;;;5075261;28;20248;-45
2022/11/15 03:35:12;;;;;;;8.83;7.83;;;;;;;;;;5075551;28;20217;-45
2022/11/15 03:37:42;;;;;;;10.60;8.03;;;;;;;;;;5075462;28;20199;-45
2022/11/15 03:40:08;;;;;;;9.17;8.23;;;;;;;;;;5074680;28;20207;-45
2022/11/15 03:42:39;;;;;;;11.27;8.80;;;;;;;;;;5075128;28;20196;-45
2022/11/15 03:45:09;;;;;;;11.63;8.47;;;;;;;;;;5075063;28;20195;-45
2022/11/15 03:47:37;;;;;;;11.10;8.30;;;;;;;;;;5075141;28;20554;-45
2022/11/15 03:50:05;;;;;;;9.03;8.10;;;;;;;;;;5074869;28;20701;-45
2022/11/15 03:52:32;;;;;;;11.50;8.63;;;;;;;;;;5075179;28;20199;-45
2022/11/15 03:55:00;;;;;;;11.07;8.77;;;;;;;;;;5074882;28;20635;-45
2022/11/15 03:57:27;;;;;;;13.37;8.43;;;;;;;;;;5074929;28;20617;-45
2022/11/15 03:59:53;;;;;;;12.57;8.70;;;;;;;;;;5074636;28;20693;-44
2022/11/15 04:02:19;;;;;;;8.93;8.03;;;;;;;;;;5074855;28;20213;-45
2022/11/15 04:04:45;;;;;;;9.27;8.27;;;;;;;;;;5075041;28;20191;-45
2022/11/15 04:07:11;;;;;;;11.73;9.57;;;;;;;;;;5074771;28;20607;-45
2022/11/15 04:12:32;;;;;;;10.60;8.90;;;;;;;;;;5074654;28;20249;-45
2022/11/15 04:15:08;;;;;;;10.17;8.60;;;;;;;;;;5074492;28;20219;-44
2022/11/15 04:17:35;;;;;;;11.80;8.53;;;;;;;;;;5074681;28;20199;-44
2022/11/15 04:25:30;;;;;;;11.00;8.87;;;;;;;;;;5074699;28;20760;-45
2022/11/15 04:27:58;;;;;;;10.50;8.60;;;;;;;;;;5074191;28;20644;-44
2022/11/15 04:30:24;;;;;;;11.43;9.73;;;;;;;;;;5074019;28;20253;-45
2022/11/15 04:32:50;;;;;;;11.17;8.80;;;;;;;;;;5074222;28;20557;-44
2022/11/15 04:35:16;;;;;;;11.30;8.63;;;;;;;;;;5074080;28;20200;-44
2022/11/15 04:37:42;;;;;;;9.07;8.17;;;;;;;;;;5074300;28;20200;-45
2022/11/15 04:40:08;;;;;;;9.57;8.10;;;;;;;;;;5074005;28;20195;-45
2022/11/15 04:42:34;;;;;;;9.93;8.93;;;;;;;;;;5073213;28;20411;-45
2022/11/15 04:45:02;;;;;;;9.43;8.17;;;;;;;;;;5073707;28;20812;-45
2022/11/15 04:47:29;;;;;;;8.73;7.83;;;;;;;;;;5074198;28;20207;-45
2022/11/15 04:49:55;;;;;;;13.37;8.03;;;;;;;;;;5073763;28;20242;-45
2022/11/15 04:52:21;;;;;;;10.30;7.90;;;;;;;;;;5074044;28;20345;-45
2022/11/15 04:54:47;;;;;;;10.10;8.20;;;;;;;;;;5073748;28;20195;-45
2022/11/15 04:57:13;;;;;;;11.37;8.23;;;;;;;;;;5073715;28;20251;-45
2022/11/15 04:59:39;;;;;;;9.17;8.23;;;;;;;;;;5073388;28;20247;-45
2022/11/15 05:02:06;;;;;;;11.27;7.80;;;;;;;;;;5073541;28;20204;-45
2022/11/15 05:04:33;;;;;;;8.87;7.60;;;;;;;;;;5073646;28;20223;-45
2022/11/15 05:06:59;;;;;;;9.70;8.30;;;;;;;;;;5073600;28;20273;-45
2022/11/15 05:09:25;;;;;;;8.50;7.50;;;;;;;;;;5073756;28;20211;-45
2022/11/15 05:11:51;;;;;;;8.77;7.07;;;;;;;;;;5073571;28;20195;-45
2022/11/15 05:14:17;;;;;;;10.23;7.60;;;;;;;;;;5073457;28;20574;-45
2022/11/15 05:16:43;;;;;;;11.33;7.40;;;;;;;;;;5070633;28;20237;-45
2022/11/15 05:19:10;;;;;;;10.43;7.80;;;;;;;;;;5072208;28;20199;-45
2022/11/15 05:21:37;;;;;;;8.20;7.33;;;;;;;;;;5072151;28;20333;-45
2022/11/15 05:24:03;;;;;;;11.47;7.60;;;;;;;;;;5073392;28;20199;-45
2022/11/15 05:26:29;;;;;;;7.80;6.63;;;;;;;;;;5073071;28;20268;-45
2022/11/15 05:28:56;;;;;;;10.83;6.73;;;;;;;;;;5073350;28;20245;-45
2022/11/15 05:31:22;;;;;;;8.97;6.97;;;;;;;;;;5072961;28;20679;-45
2022/11/15 05:33:49;;;;;;;8.73;6.87;;;;;;;;;;5073368;28;20191;-45
2022/11/15 05:36:17;;;;;;;9.17;7.00;;;;;;;;;;5072942;28;20254;-46
2022/11/15 05:38:44;;;;;;;8.10;6.33;;;;;;;;;;5073318;28;20260;-46
2022/11/15 05:41:10;;;;;;;8.67;6.90;;;;;;;;;;5073036;28;20195;-46
2022/11/15 05:43:38;;;;;;;7.43;6.73;;;;;;;;;;5073158;28;20646;-46
2022/11/15 05:46:05;;;;;;;8.17;6.47;;;;;;;;;;5072731;28;20250;-46
2022/11/15 05:48:31;;;;;;;8.67;6.90;;;;;;;;;;5072795;28;20285;-46
2022/11/15 05:50:57;;;;;;;9.90;6.80;;;;;;;;;;5072840;28;20598;-45
2022/11/15 05:53:25;;;;;;;6.83;6.10;;;;;;;;;;5072570;28;20196;-46
2022/11/15 05:55:51;;;;;;;7.10;6.40;;;;;;;;;;5072502;28;20314;-45
2022/11/15 05:58:18;;;;;;;10.67;6.93;;;;;;;;;;5072400;28;20341;-45
2022/11/15 06:00:44;;;;;;;7.10;6.40;;;;;;;;;;5072701;28;20237;-45
2022/11/15 06:03:10;;;;;;;7.47;6.57;;;;;;;;;;5072491;28;20196;-45
2022/11/15 06:05:36;;;;;;;7.90;6.60;;;;;;;;;;5072549;28;20191;-45
2022/11/15 06:08:02;;;;;;;7.53;6.67;;;;;;;;;;5072555;28;20227;-45
2022/11/15 06:10:30;;;;;;;8.53;6.70;;;;;;;;;;5072412;28;20203;-45
2022/11/15 06:12:59;;;;;;;8.50;6.70;;;;;;;;;;5072194;28;20203;-45
2022/11/15 06:15:25;;;;;;;7.63;6.80;;;;;;;;;;5072226;28;20200;-45
2022/11/15 06:17:51;;;;;;;10.00;6.70;;;;;;;;;;5072079;28;20198;-45
2022/11/15 06:20:17;;;;;;;7.13;6.43;;;;;;;;;;5071947;28;20296;-45
2022/11/15 06:22:44;;;;;;;8.33;7.30;;;;;;;;;;5071987;28;20609;-45
2022/11/15 06:25:10;;;;;;;8.10;6.50;;;;;;;;;;5071615;28;20325;-45
2022/11/15 06:27:37;;;;;;;10.17;6.33;;;;;;;;;;5071624;28;20654;-45
2022/11/15 06:30:03;;;;;;;9.97;6.30;;;;;;;;;;5071679;28;20550;-45
2022/11/15 06:32:30;;;;;;;8.63;6.87;;;;;;;;;;5071601;28;20218;-45
2022/11/15 06:34:56;;;;;;;8.10;6.40;;;;;;;;;;5071629;28;20278;-45
2022/11/15 06:37:22;;;;;;;6.97;6.23;;;;;;;;;;5071532;28;21056;-45
2022/11/15 06:39:48;;;;;;;7.93;6.13;;;;;;;;;;5071791;28;20203;-45
2022/11/15 06:42:14;;;;;;;7.87;6.27;;;;;;;;;;5071770;28;20210;-45
2022/11/15 06:44:42;;;;;;;6.90;6.20;;;;;;;;;;5071887;28;20245;-45
2022/11/15 06:47:10;;;;;;;8.03;5.97;;;;;;;;;;5071780;28;20206;-45
2022/11/15 06:49:36;;;;;;;6.77;6.03;;;;;;;;;;5071541;28;20239;-45
2022/11/15 06:52:03;;;;;;;7.07;5.43;;;;;;;;;;5072170;28;20223;-46
2022/11/15 06:54:29;;;;;;;6.00;5.40;;;;;;;;;;5071693;28;20188;-45
2022/11/15 06:56:55;;;;;;;7.47;6.13;;;;;;;;;;5071446;28;20224;-45
2022/11/15 06:59:21;;;;;;;6.57;5.87;;;;;;;;;;5071244;28;20203;-47
2022/11/15 07:01:49;;;;;;;7.33;5.80;;;;;;;;;;5071600;28;20600;-45
2022/11/15 07:04:15;;;;;;;6.80;5.30;;;;;;;;;;5071338;28;20207;-45
2022/11/15 07:06:41;;;;;;;6.67;5.67;;;;;;;;;;5070679;28;20198;-45
2022/11/15 07:09:07;;;;;;;6.67;5.60;;;;;;;;;;5071189;28;20654;-46
2022/11/15 07:11:34;;;;;;;6.53;5.30;;;;;;;;;;5071423;28;20666;-46
2022/11/15 07:14:00;;;;;;;6.00;5.37;;;;;;;;;;5070663;28;20635;-45
2022/11/15 07:16:26;;;;;;;5.90;5.33;;;;;;;;;;5071154;28;20686;-45
2022/11/15 07:18:53;;;;;;;6.87;5.50;;;;;;;;;;5070387;28;20205;-46
2022/11/15 07:21:19;;;;;;;7.00;5.70;;;;;;;;;;5070610;28;20206;-46
2022/11/15 07:23:45;;;;;;;7.50;5.60;;;;;;;;;;5070996;28;20614;-45
2022/11/15 07:26:11;;;;;;;6.07;5.47;;;;;;;;;;5071300;28;20202;-46
2022/11/15 07:28:38;;;;;;;6.13;5.37;;;;;;;;;;5071221;28;20203;-46
2022/11/15 07:31:04;;;;;;;6.53;5.53;;;;;;;;;;5071354;28;20358;-45
2022/11/15 07:33:30;;;;;;;5.43;5.03;;;;;;;;;;5071426;28;20227;-45
2022/11/15 07:36:01;;;;;;;6.17;5.57;;;;;;;;;;5070624;28;20231;-45
2022/11/15 07:38:29;;;;;;;5.70;5.17;;;;;;;;;;5071241;28;20204;-46
2022/11/15 07:40:59;;;;;;;6.47;5.17;;;;;;;;;;5070982;28;20199;-46
2022/11/15 07:43:27;;;;;;;6.10;5.10;;;;;;;;;;5070659;28;20205;-47
2022/11/15 07:45:53;;;;;;;5.67;5.07;;;;;;;;;;5071123;28;20191;-46
2022/11/15 07:48:20;;;;;;;6.33;5.43;;;;;;;;;;5070718;28;20780;-47
2022/11/15 07:50:46;;;;;;;5.73;5.20;;;;;;;;;;5070941;28;20298;-47
2022/11/15 07:53:13;;;;;;;6.43;5.37;;;;;;;;;;5071038;28;20766;-46
2022/11/15 07:55:40;;;;;;;7.63;5.87;;;;;;;;;;5070104;28;20669;-46
2022/11/15 07:58:07;;;;;;;6.57;5.80;;;;;;;;;;5070143;28;20281;-46
2022/11/15 08:00:33;;;;;;;5.70;5.20;;;;;;;;;;5070862;28;20238;-46
2022/11/15 08:03:03;;;;;;;6.73;6.00;;;;;;;;;;5070825;28;20606;-46
2022/11/15 08:05:29;;;;;;;8.70;6.27;;;;;;;;;;5070967;28;20203;-46
2022/11/15 08:07:55;;;;;;;6.83;5.60;;;;;;;;;;5071054;28;20215;-46
2022/11/15 08:10:23;;;;;;;7.10;5.63;;;;;;;;;;5071083;28;20620;-46
2022/11/15 08:12:56;;;;;;;6.10;5.50;;;;;;;;;;5071028;28;20208;-46
2022/11/15 08:15:22;;;;;;;6.40;5.80;;;;;;;;;;5070654;28;20211;-45
2022/11/15 08:17:53;;;;;;;6.03;5.53;;;;;;;;;;5072978;28;20219;-45
2022/11/15 08:20:19;;;;;;;6.27;5.53;;;;;;;;;;5074689;28;20673;-46
2022/11/15 08:22:45;;;;;;;6.13;5.50;;;;;;;;;;5074565;28;20199;-46
2022/11/15 08:25:11;;;;;;;7.30;5.00;;;;;;;;;;5074383;28;20200;-46
2022/11/15 08:27:39;;;;;;;5.67;5.07;;;;;;;;;;5074698;28;20196;-45
2022/11/15 08:30:06;;;;;;;7.03;5.33;;;;;;;;;;5074277;28;20231;-46
2022/11/15 08:32:32;;;;;;;7.13;5.27;;;;;;;;;;5074510;28;20196;-45
2022/11/15 08:34:58;;;;;;;6.40;4.90;;;;;;;;;;5074242;28;20200;-45
2022/11/15 08:37:24;;;;;;;5.63;5.13;;;;;;;;;;5073656;28;20721;-45
2022/11/15 08:39:50;;;;;;;5.27;4.77;;;;;;;;;;5074009;28;20206;-45
2022/11/15 08:42:16;;;;;;;5.80;4.73;;;;;;;;;;5074290;28;20199;-45
2022/11/15 08:44:44;;;;;;;6.27;4.93;;;;;;;;;;5073693;28;20476;-45
2022/11/15 08:47:11;;;;;;;5.30;4.63;;;;;;;;;;5073225;28;20195;-45
2022/11/15 08:49:37;;;;;;;5.23;4.70;;;;;;;;;;5073567;28;20292;-46
2022/11/15 08:52:03;;;;;;;4.97;4.47;;;;;;;;;;5074058;28;20210;-46
2022/11/15 08:54:29;;;;;;;4.60;3.80;;;;;;;;;;5074293;28;20195;-46
2022/11/15 08:56:55;;;;;;;4.60;4.20;;;;;;;;;;5073747;28;20215;-46
2022/11/15 08:59:21;;;;;;;5.10;4.60;;;;;;;;;;5073780;28;20223;-46
2022/11/15 09:01:49;;;;;;;4.60;4.00;;;;;;;;;;5073795;28;20192;-46
2022/11/15 09:04:15;;;;;;;6.60;4.70;;;;;;;;;;5073525;28;20204;-46
2022/11/15 09:06:41;;;;;;;5.70;4.20;;;;;;;;;;5073774;28;20378;-46
2022/11/15 09:09:07;;;;;;;7.57;4.67;;;;;;;;;;5071762;28;20329;-46
2022/11/15 09:11:33;;;;;;;5.80;4.30;;;;;;;;;;5071390;28;20199;-46
2022/11/15 09:13:59;;;;;;;5.37;4.20;;;;;;;;;;5073450;28;20253;-47
2022/11/15 09:16:25;;;;;;;4.73;4.23;;;;;;;;;;5071906;28;20625;-47
2022/11/15 09:18:52;;;;;;;5.10;4.10;;;;;;;;;;5073219;28;20222;-45
2022/11/15 09:21:19;;;;;;;5.77;4.47;;;;;;;;;;5070229;28;20204;-45
2022/11/15 09:23:45;;;;;;;6.53;4.47;;;;;;;;;;5073440;28;20604;-45
2022/11/15 09:26:11;;;;;;;6.73;4.90;;;;;;;;;;5071485;28;20195;-45
2022/11/15 09:28:38;;;;;;;5.47;4.53;;;;;;;;;;5072528;28;20183;-46
2022/11/15 09:31:05;;;;;;;4.20;3.80;;;;;;;;;;5073330;28;20668;-45
2022/11/15 09:33:31;;;;;;;4.90;4.00;;;;;;;;;;5073308;28;20199;-45
2022/11/15 09:36:02;;;;;;;5.50;4.00;;;;;;;;;;5073334;28;20216;-45
2022/11/15 09:38:28;;;;;;;4.37;3.60;;;;;;;;;;5072759;28;20206;-45
2022/11/15 09:40:58;;;;;;;4.60;3.70;;;;;;;;;;5073154;28;20247;-45
2022/11/15 09:43:28;;;;;;;3.73;3.27;;;;;;;;;;5071539;28;20284;-45
2022/11/15 09:46:00;;;;;;;3.40;3.07;;;;;;;;;;5073113;28;20221;-45
2022/11/15 09:48:42;;;;;;;3.80;3.10;;;;;;;;;;5072826;28;20841;-46
2022/11/15 09:51:15;;;;;;;5.00;3.57;;;;;;;;;;5073020;28;20224;-46
2022/11/15 09:53:43;;;;;;;5.07;2.97;;;;;;;;;;5073015;28;20549;-45
2022/11/15 09:56:14;;;;;;;3.53;2.67;;;;;;;;;;5072775;28;20223;-46
2022/11/15 09:58:44;;;;;;;4.30;2.90;;;;;;;;;;5068639;28;20646;-47
2022/11/15 10:01:16;;;;;;;4.63;2.63;;;;;;;;;;5072765;28;20195;-46
2022/11/15 10:03:42;;;;;;;3.70;2.73;;;;;;;;;;5072405;28;20293;-48
2022/11/15 10:06:15;;;;;;;3.90;2.57;;;;;;;;;;5071758;28;20670;-47
2022/11/15 10:08:47;;;;;;;4.97;3.13;;;;;;;;;;5072222;28;20232;-46
2022/11/15 10:11:16;;;;;;;3.03;2.73;;;;;;;;;;5071040;28;20211;-46
2022/11/15 10:13:43;;;;;;;3.23;2.37;;;;;;;;;;5072510;28;20201;-46
2022/11/15 10:16:15;;;;;;;3.00;2.70;;;;;;;;;;5072089;28;20213;-47
2022/11/15 10:18:47;;;;;;;3.10;2.80;;;;;;;;;;5071597;28;20204;-47
2022/11/15 10:21:17;;;;;;;2.70;2.50;;;;;;;;;;5072461;28;20690;-47
2022/11/15 10:23:43;;;;;;;3.13;2.30;;;;;;;;;;5071712;28;20210;-47
2022/11/15 10:26:11;;;;;;;3.03;2.23;;;;;;;;;;5072581;28;20189;-47
2022/11/15 10:28:38;;;;;;;3.80;2.50;;;;;;;;;;5072050;28;20227;-47
2022/11/15 10:31:20;;;;;;;2.13;1.80;;;;;;;;;;5071869;28;20197;-47
2022/11/15 10:33:46;;;;;;;2.40;2.20;;;;;;;;;;5071153;28;20653;-46
2022/11/15 10:36:30;;;;;;;2.77;2.07;;;;;;;;;;5070532;28;20229;-45
2022/11/15 10:38:58;;;;;;;2.70;1.73;;;;;;;;;;5071726;28;20233;-45
2022/11/15 10:41:34;;;;;;;2.30;1.90;;;;;;;;;;5071540;28;20195;-46
2022/11/15 10:44:08;;;;;;;2.17;1.80;;;;;;;;;;5072030;28;20201;-45
2022/11/15 10:46:35;;;;;;;2.50;1.93;;;;;;;;;;5071576;28;20698;-45
2022/11/15 10:49:12;;;;;;;2.90;2.03;;;;;;;;;;5071769;28;20238;-46
2022/11/15 10:51:41;;;;;;;1.93;1.67;;;;;;;;;;5071724;28;20202;-45
2022/11/15 10:54:10;;;;;;;2.23;2.03;;;;;;;;;;5071094;28;20199;-46
2022/11/15 10:56:36;;;;;;;2.37;2.00;;;;;;;;;;5071235;28;20223;-46
2022/11/15 10:59:02;;;;;;;2.27;1.83;;;;;;;;;;5070715;28;20207;-46
2022/11/15 11:01:29;;;;;;;3.20;2.10;;;;;;;;;;5071543;28;20199;-47
2022/11/15 11:03:59;;;;;;;2.13;1.90;;;;;;;;;;5071739;28;20568;-47
2022/11/15 11:06:25;;;;;;;2.63;2.33;;;;;;;;;;5071566;28;20194;-46
2022/11/15 11:08:58;;;;;;;2.37;2.17;;;;;;;;;;5071266;28;20257;-46
2022/11/15 11:11:25;;;;;;;2.23;1.70;;;;;;;;;;5070808;28;20199;-47
2022/11/15 11:13:52;;;;;;;2.67;2.00;;;;;;;;;;5071118;28;20207;-47
2022/11/15 11:16:40;;;;;;;4.87;2.20;;;;;;;;;;5070626;28;20223;-46
2022/11/15 11:19:15;;;;;;;3.67;1.60;;;;;;;;;;5071230;28;20237;-46
2022/11/15 11:21:46;;;;;;;4.87;2.10;;;;;;;;;;5071345;28;20210;-47
2022/11/15 11:24:16;;;;;;;4.27;2.00;;;;;;;;;;5071529;28;20203;-46
2022/11/15 11:26:50;;;;;;;2.03;1.83;;;;;;;;;;5071835;28;20246;-46
2022/11/15 11:29:21;;;;;;;2.37;1.73;;;;;;;;;;5071592;28;20250;-47
2022/11/15 11:31:51;;;;;;;3.87;1.90;;;;;;;;;;5071713;28;20253;-46
2022/11/15 11:34:26;;;;;;;2.13;1.80;;;;;;;;;;5071502;28;20201;-45
2022/11/15 11:36:55;;;;;;;1.80;1.70;;;;;;;;;;5071637;28;20265;-47
2022/11/15 11:39:26;;;;;;;4.07;1.90;;;;;;;;;;5071122;28;20604;-47
2022/11/15 11:41:57;;;;;;;1.73;1.63;;;;;;;;;;5069437;28;20199;-45
2022/11/15 11:44:28;;;;;;;3.37;1.90;;;;;;;;;;5071103;28;20202;-47
2022/11/15 11:46:55;;;;;;;3.53;2.13;;;;;;;;;;5071267;28;20198;-46
2022/11/15 11:49:24;;;;;;;2.30;1.70;;;;;;;;;;5070780;28;20268;-46
2022/11/15 11:51:52;;;;;;;1.80;1.60;;;;;;;;;;5071595;28;20196;-46
2022/11/15 11:54:21;;;;;;;2.27;1.80;;;;;;;;;;5072438;28;20209;-46
2022/11/15 11:56:47;;;;;;;1.70;1.60;;;;;;;;;;5074782;28;20228;-47
2022/11/15 11:59:18;;;;;;;1.77;1.60;;;;;;;;;;5073711;28;20205;-47
2022/11/15 12:01:45;;;;;;;2.30;1.60;;;;;;;;;;5075356;28;20200;-46
2022/11/15 12:04:14;;;;;;;2.87;1.70;;;;;;;;;;5074736;28;20581;-46
2022/11/15 12:06:43;;;;;;;1.80;1.70;;;;;;;;;;5075080;28;20207;-47
2022/11/15 12:09:13;;;;;;;2.67;1.60;;;;;;;;;;5074238;28;20219;-46
2022/11/15 12:11:44;;;;;;;2.10;1.90;;;;;;;;;;5074092;28;20658;-46
2022/11/15 12:14:17;;;;;;;1.60;1.50;;;;;;;;;;5073948;28;20237;-46
2022/11/15 12:16:44;;;;;;;3.07;1.90;;;;;;;;;;5074548;28;20228;-46
2022/11/15 12:19:10;;;;;;;2.37;1.60;;;;;;;;;;5074490;28;20223;-46
2022/11/15 12:21:40;;;;;;;2.13;1.60;;;;;;;;;;5074267;28;20206;-46
2022/11/15 12:24:08;;;;;;;1.87;1.70;;;;;;;;;;5074562;28;20194;-46
2022/11/15 12:26:36;;;;;;;2.50;1.80;;;;;;;;;;5074234;28;20205;-46
2022/11/15 12:29:03;;;;;;;3.10;1.70;;;;;;;;;;5074339;28;20656;-46
2022/11/15 12:31:36;;;;;;;2.27;1.73;;;;;;;;;;5074182;28;20204;-47
2022/11/15 12:34:05;;;;;;;3.13;1.77;;;;;;;;;;5074279;28;20200;-45
2022/11/15 12:36:35;;;;;;;1.80;1.50;;;;;;;;;;5072722;28;20293;-46
2022/11/15 12:39:02;;;;;;;3.80;1.77;;;;;;;;;;5074180;28;20202;-45
2022/11/15 12:41:29;;;;;;;2.03;1.80;;;;;;;;;;5073994;28;20231;-45
2022/11/15 12:43:55;;;;;;;1.80;1.43;;;;;;;;;;5074224;28;20196;-45
2022/11/15 12:46:22;;;;;;;1.70;1.40;;;;;;;;;;5073870;28;20196;-45
2022/11/15 12:48:53;;;;;;;2.30;1.50;;;;;;;;;;5073858;28;20724;-45
2022/11/15 12:51:21;;;;;;;4.30;1.70;;;;;;;;;;5073866;28;20204;-46
2022/11/15 12:53:47;;;;;;;1.73;1.60;;;;;;;;;;5073907;28;20221;-46
2022/11/15 12:56:20;;;;;;;2.27;1.70;;;;;;;;;;5073718;28;20223;-46
2022/11/15 12:58:47;;;;;;;1.90;1.70;;;;;;;;;;5073750;28;20211;-46
2022/11/15 13:01:28;;;;;;;3.50;1.70;;;;;;;;;;5073703;28;20197;-46
2022/11/15 13:04:14;;;;;;;2.10;1.90;;;;;;;;;;5071768;28;20203;-46
2022/11/15 13:06:42;;;;;;;2.23;1.50;;;;;;;;;;5072984;28;20233;-45
2022/11/15 13:09:27;;;;;;;1.50;1.40;;;;;;;;;;5073361;28;20239;-45
2022/11/15 13:11:53;;;;;;;2.20;1.90;;;;;;;;;;5072990;28;20656;-46
2022/11/15 13:14:39;;;;;;;2.20;1.80;;;;;;;;;;5073081;28;20195;-46
2022/11/15 13:17:22;;;;;;;2.23;1.93;;;;;;;;;;5073895;28;20703;-46
2022/11/15 13:19:52;;;;;;;3.30;1.83;;;;;;;;;;5073366;28;20196;-46
2022/11/15 13:25:15;;;;;;;2.23;2.00;;;;;;;;;;5073386;28;20194;-46
2022/11/15 13:27:41;;;;;;;2.10;1.80;;;;;;;;;;5073532;28;20219;-46
2022/11/15 13:30:14;;;;;;;3.17;1.60;;;;;;;;;;5073036;28;20203;-46
2022/11/15 13:32:40;;;;;;;2.37;1.87;;;;;;;;;;5073516;28;20191;-47
2022/11/15 13:35:07;;;;;;;2.80;1.80;;;;;;;;;;5072690;28;20198;-46
2022/11/15 13:37:35;;;;;;;1.70;1.43;;;;;;;;;;5073075;28;20815;-45
2022/11/15 13:40:11;;;;;;;2.07;1.70;;;;;;;;;;5073005;28;20224;-45
2022/11/15 13:42:37;;;;;;;4.80;1.90;;;;;;;;;;5072712;28;20196;-45
2022/11/15 13:45:04;;;;;;;1.73;1.63;;;;;;;;;;5071926;28;20196;-46
2022/11/15 13:47:31;;;;;;;2.57;1.50;;;;;;;;;;5072775;28;20214;-45
2022/11/15 13:49:57;;;;;;;2.80;2.07;;;;;;;;;;5072820;28;20235;-45
2022/11/15 13:52:24;;;;;;;2.50;2.20;;;;;;;;;;5072332;28;20286;-45
2022/11/15 13:54:56;;;;;;;3.60;2.10;;;;;;;;;;5072819;28;20207;-45
2022/11/15 13:57:23;;;;;;;2.27;1.97;;;;;;;;;;5072272;28;20309;-45
2022/11/15 13:59:51;;;;;;;3.03;2.40;;;;;;;;;;5072792;28;20658;-45
2022/11/15 14:02:18;;;;;;;2.70;1.90;;;;;;;;;;5072227;28;20665;-45
2022/11/15 14:04:49;;;;;;;2.20;2.00;;;;;;;;;;5072371;28;20204;-45
2022/11/15 14:07:18;;;;;;;2.40;1.90;;;;;;;;;;5072096;28;20685;-45
2022/11/15 14:09:46;;;;;;;2.40;2.20;;;;;;;;;;5071583;28;20242;-45
2022/11/15 14:12:30;;;;;;;2.27;1.93;;;;;;;;;;5072556;28;20202;-45
2022/11/15 14:14:56;;;;;;;3.63;2.10;;;;;;;;;;5071920;28;20203;-45
2022/11/15 14:17:33;;;;;;;3.60;2.30;;;;;;;;;;5072212;28;20224;-46
2022/11/15 14:19:59;;;;;;;2.30;2.10;;;;;;;;;;5071571;28;20716;-45
2022/11/15 14:22:27;;;;;;;2.30;2.10;;;;;;;;;;5072120;28;20282;-46
2022/11/15 14:25:12;;;;;;;3.77;2.00;;;;;;;;;;5072139;28;20282;-45
2022/11/15 14:27:40;;;;;;;2.10;1.90;;;;;;;;;;5071723;28;20221;-45
2022/11/15 14:30:07;;;;;;;3.67;2.60;;;;;;;;;;5072051;28;20221;-45
2022/11/15 14:32:38;;;;;;;3.40;2.23;;;;;;;;;;5072029;28;20208;-45
2022/11/15 14:35:04;;;;;;;2.33;2.13;;;;;;;;;;5071675;28;20654;-46
2022/11/15 14:37:33;;;;;;;3.47;2.30;;;;;;;;;;5071652;28;20310;-46
2022/11/15 14:39:59;;;;;;;4.30;2.50;;;;;;;;;;5071837;28;20663;-45
2022/11/15 14:42:26;;;;;;;2.63;2.43;;;;;;;;;;5071340;28;20726;-45
2022/11/15 14:44:54;;;;;;;2.50;2.30;;;;;;;;;;5072219;28;20206;-46
2022/11/15 14:47:20;;;;;;;3.97;3.20;;;;;;;;;;5071554;28;20227;-46
2022/11/15 14:49:46;;;;;;;2.47;2.27;;;;;;;;;;5071570;28;20239;-46
2022/11/15 14:52:22;;;;;;;4.60;2.90;;;;;;;;;;5071611;28;20638;-46
2022/11/15 14:54:49;;;;;;;3.13;2.50;;;;;;;;;;5071656;28;20238;-46
2022/11/15 14:57:15;;;;;;;2.47;2.20;;;;;;;;;;5071517;28;20259;-46
2022/11/15 14:59:41;;;;;;;3.13;2.50;;;;;;;;;;5071826;28;20249;-46